sensor_id;sensor_type;location;lat;lon;timestamp;P1;durP1;ratioP1;P2;durP2;ratioP2
20855;SDS011;63058;49.424;8.420;2023-05-10T00:02:25;0.70;;;0.60;;
20855;SDS011;63058;49.424;8.420;2023-05-10T00:04:51;1.15;;;0.70;;
20855;SDS011;63058;49.424;8.420;2023-05-10T00:07:17;0.65;;;0.65;;
20855;SDS011;63058;49.424;8.420;2023-05-10T00:09:43;0.70;;;0.70;;
20855;SDS011;63058;49.424;8.420;2023-05-10T00:12:09;0.52;;;0.52;;
20855;SDS011;63058;49.424;8.420;2023-05-10T00:14:34;0.60;;;0.60;;
20855;SDS011;63058;49.424;8.420;2023-05-10T00:17:00;0.80;;;0.60;;
20855;SDS011;63058;49.424;8.420;2023-05-10T00:19:26;0.60;;;0.60;;
20855;SDS011;63058;49.424;8.420;2023-05-10T00:21:52;1.90;;;0.70;;
20855;SDS011;63058;49.424;8.420;2023-05-10T00:24:17;0.77;;;0.63;;
20855;SDS011;63058;49.424;8.420;2023-05-10T00:26:43;2.70;;;0.70;;
20855;SDS011;63058;49.424;8.420;2023-05-10T00:29:09;0.60;;;0.60;;
20855;SDS011;63058;49.424;8.420;2023-05-10T00:31:35;0.80;;;0.80;;
20855;SDS011;63058;49.424;8.420;2023-05-10T00:34:00;0.70;;;0.70;;
20855;SDS011;63058;49.424;8.420;2023-05-10T00:36:26;0.60;;;0.60;;
20855;SDS011;63058;49.424;8.420;2023-05-10T00:38:53;0.77;;;0.77;;
20855;SDS011;63058;49.424;8.420;2023-05-10T00:41:19;0.80;;;0.80;;
20855;SDS011;63058;49.424;8.420;2023-05-10T00:43:46;1.00;;;0.90;;
20855;SDS011;63058;49.424;8.420;2023-05-10T00:46:11;1.70;;;0.70;;
20855;SDS011;63058;49.424;8.420;2023-05-10T00:48:39;0.70;;;0.70;;
20855;SDS011;63058;49.424;8.420;2023-05-10T00:51:05;0.90;;;0.90;;
20855;SDS011;63058;49.424;8.420;2023-05-10T00:53:31;0.85;;;0.70;;
20855;SDS011;63058;49.424;8.420;2023-05-10T00:55:57;1.50;;;0.80;;
20855;SDS011;63058;49.424;8.420;2023-05-10T00:58:24;0.98;;;0.68;;
20855;SDS011;63058;49.424;8.420;2023-05-10T01:00:53;0.57;;;0.57;;
20855;SDS011;63058;49.424;8.420;2023-05-10T01:03:21;0.60;;;0.60;;
20855;SDS011;63058;49.424;8.420;2023-05-10T01:05:46;1.27;;;0.77;;
20855;SDS011;63058;49.424;8.420;2023-05-10T01:08:12;1.08;;;0.57;;
20855;SDS011;63058;49.424;8.420;2023-05-10T01:10:38;0.80;;;0.57;;
20855;SDS011;63058;49.424;8.420;2023-05-10T01:13:04;3.47;;;0.77;;
20855;SDS011;63058;49.424;8.420;2023-05-10T01:15:30;0.70;;;0.70;;
20855;SDS011;63058;49.424;8.420;2023-05-10T01:17:56;0.95;;;0.60;;
20855;SDS011;63058;49.424;8.420;2023-05-10T01:20:22;0.52;;;0.52;;
20855;SDS011;63058;49.424;8.420;2023-05-10T01:34:28;0.50;;;0.50;;
20855;SDS011;63058;49.424;8.420;2023-05-10T01:37:13;0.52;;;0.50;;
20855;SDS011;63058;49.424;8.420;2023-05-10T01:40:01;0.55;;;0.50;;
20855;SDS011;63058;49.424;8.420;2023-05-10T01:42:39;0.50;;;0.50;;
20855;SDS011;63058;49.424;8.420;2023-05-10T01:48:07;0.65;;;0.52;;
20855;SDS011;63058;49.424;8.420;2023-05-10T01:50:36;0.57;;;0.57;;
20855;SDS011;63058;49.424;8.420;2023-05-10T01:53:06;0.60;;;0.60;;
20855;SDS011;63058;49.424;8.420;2023-05-10T01:55:35;0.70;;;0.40;;
20855;SDS011;63058;49.424;8.420;2023-05-10T01:58:08;0.60;;;0.60;;
20855;SDS011;63058;49.424;8.420;2023-05-10T02:00:39;1.13;;;0.60;;
20855;SDS011;63058;49.424;8.420;2023-05-10T02:03:08;1.95;;;0.80;;
20855;SDS011;63058;49.424;8.420;2023-05-10T02:05:35;0.73;;;0.60;;
20855;SDS011;63058;49.424;8.420;2023-05-10T02:08:02;1.67;;;0.73;;
20855;SDS011;63058;49.424;8.420;2023-05-10T02:10:32;0.70;;;0.70;;
20855;SDS011;63058;49.424;8.420;2023-05-10T02:13:02;0.50;;;0.50;;
20855;SDS011;63058;49.424;8.420;2023-05-10T02:15:31;0.55;;;0.50;;
20855;SDS011;63058;49.424;8.420;2023-05-10T02:17:58;0.68;;;0.60;;
20855;SDS011;63058;49.424;8.420;2023-05-10T02:20:25;0.60;;;0.60;;
20855;SDS011;63058;49.424;8.420;2023-05-10T02:22:52;1.02;;;0.60;;
20855;SDS011;63058;49.424;8.420;2023-05-10T02:25:21;1.73;;;0.70;;
20855;SDS011;63058;49.424;8.420;2023-05-10T02:27:48;0.70;;;0.60;;
20855;SDS011;63058;49.424;8.420;2023-05-10T02:30:15;1.00;;;0.80;;
20855;SDS011;63058;49.424;8.420;2023-05-10T02:32:41;0.73;;;0.70;;
20855;SDS011;63058;49.424;8.420;2023-05-10T02:35:08;0.85;;;0.68;;
20855;SDS011;63058;49.424;8.420;2023-05-10T02:37:36;0.75;;;0.75;;
20855;SDS011;63058;49.424;8.420;2023-05-10T02:40:03;0.85;;;0.60;;
20855;SDS011;63058;49.424;8.420;2023-05-10T02:42:31;1.00;;;0.80;;
20855;SDS011;63058;49.424;8.420;2023-05-10T02:45:00;1.05;;;0.82;;
20855;SDS011;63058;49.424;8.420;2023-05-10T02:47:28;1.10;;;0.80;;
20855;SDS011;63058;49.424;8.420;2023-05-10T02:49:54;1.60;;;0.88;;
20855;SDS011;63058;49.424;8.420;2023-05-10T02:52:24;0.75;;;0.75;;
20855;SDS011;63058;49.424;8.420;2023-05-10T02:54:58;0.95;;;0.95;;
20855;SDS011;63058;49.424;8.420;2023-05-10T02:57:28;1.10;;;0.73;;
20855;SDS011;63058;49.424;8.420;2023-05-10T02:59:58;1.98;;;0.93;;
20855;SDS011;63058;49.424;8.420;2023-05-10T03:02:25;1.20;;;1.10;;
20855;SDS011;63058;49.424;8.420;2023-05-10T03:04:51;1.88;;;1.10;;
20855;SDS011;63058;49.424;8.420;2023-05-10T03:07:16;0.98;;;0.90;;
20855;SDS011;63058;49.424;8.420;2023-05-10T03:09:46;2.35;;;1.05;;
20855;SDS011;63058;49.424;8.420;2023-05-10T03:12:18;0.90;;;0.80;;
20855;SDS011;63058;49.424;8.420;2023-05-10T03:18:29;0.77;;;0.77;;
20855;SDS011;63058;49.424;8.420;2023-05-10T03:21:05;1.55;;;0.85;;
20855;SDS011;63058;49.424;8.420;2023-05-10T03:26:12;0.95;;;0.85;;
20855;SDS011;63058;49.424;8.420;2023-05-10T03:28:45;0.90;;;0.77;;
20855;SDS011;63058;49.424;8.420;2023-05-10T03:31:12;4.40;;;0.93;;
20855;SDS011;63058;49.424;8.420;2023-05-10T03:33:47;1.13;;;0.90;;
20855;SDS011;63058;49.424;8.420;2023-05-10T03:36:14;0.95;;;0.90;;
20855;SDS011;63058;49.424;8.420;2023-05-10T03:38:40;2.35;;;0.88;;
20855;SDS011;63058;49.424;8.420;2023-05-10T03:41:05;0.82;;;0.82;;
20855;SDS011;63058;49.424;8.420;2023-05-10T03:43:31;4.80;;;1.10;;
20855;SDS011;63058;49.424;8.420;2023-05-10T03:45:57;1.98;;;0.82;;
20855;SDS011;63058;49.424;8.420;2023-05-10T03:48:22;1.73;;;0.85;;
20855;SDS011;63058;49.424;8.420;2023-05-10T03:50:48;1.08;;;0.80;;
20855;SDS011;63058;49.424;8.420;2023-05-10T03:53:16;0.90;;;0.90;;
20855;SDS011;63058;49.424;8.420;2023-05-10T03:55:42;1.85;;;1.00;;
20855;SDS011;63058;49.424;8.420;2023-05-10T03:58:10;1.60;;;0.90;;
20855;SDS011;63058;49.424;8.420;2023-05-10T04:00:36;0.73;;;0.73;;
20855;SDS011;63058;49.424;8.420;2023-05-10T04:03:02;1.27;;;0.98;;
20855;SDS011;63058;49.424;8.420;2023-05-10T04:05:28;0.80;;;0.77;;
20855;SDS011;63058;49.424;8.420;2023-05-10T04:07:53;2.20;;;0.88;;
20855;SDS011;63058;49.424;8.420;2023-05-10T04:10:19;1.75;;;0.93;;
20855;SDS011;63058;49.424;8.420;2023-05-10T04:12:46;0.90;;;0.90;;
20855;SDS011;63058;49.424;8.420;2023-05-10T04:15:11;1.55;;;0.77;;
20855;SDS011;63058;49.424;8.420;2023-05-10T04:17:37;1.58;;;0.93;;
20855;SDS011;63058;49.424;8.420;2023-05-10T04:20:03;1.00;;;0.80;;
20855;SDS011;63058;49.424;8.420;2023-05-10T04:22:29;1.08;;;0.77;;
20855;SDS011;63058;49.424;8.420;2023-05-10T04:24:55;1.00;;;0.90;;
20855;SDS011;63058;49.424;8.420;2023-05-10T04:27:21;1.45;;;1.13;;
20855;SDS011;63058;49.424;8.420;2023-05-10T04:29:46;2.90;;;1.55;;
20855;SDS011;63058;49.424;8.420;2023-05-10T04:32:12;1.80;;;1.15;;
20855;SDS011;63058;49.424;8.420;2023-05-10T04:34:37;3.33;;;1.10;;
20855;SDS011;63058;49.424;8.420;2023-05-10T04:37:03;0.88;;;0.85;;
20855;SDS011;63058;49.424;8.420;2023-05-10T04:39:29;0.80;;;0.80;;
20855;SDS011;63058;49.424;8.420;2023-05-10T04:41:54;0.93;;;0.85;;
20855;SDS011;63058;49.424;8.420;2023-05-10T04:44:20;1.00;;;0.90;;
20855;SDS011;63058;49.424;8.420;2023-05-10T04:46:46;0.73;;;0.73;;
20855;SDS011;63058;49.424;8.420;2023-05-10T04:49:11;0.77;;;0.65;;
20855;SDS011;63058;49.424;8.420;2023-05-10T04:51:37;1.83;;;1.00;;
20855;SDS011;63058;49.424;8.420;2023-05-10T04:54:02;1.00;;;0.90;;
20855;SDS011;63058;49.424;8.420;2023-05-10T04:56:28;1.25;;;0.80;;
20855;SDS011;63058;49.424;8.420;2023-05-10T04:58:54;0.88;;;0.88;;
20855;SDS011;63058;49.424;8.420;2023-05-10T11:00:36;0.50;;;0.50;;
20855;SDS011;63058;49.424;8.420;2023-05-10T11:03:10;1.00;;;0.60;;
20855;SDS011;63058;49.424;8.420;2023-05-10T11:05:42;0.70;;;0.60;;
20855;SDS011;63058;49.424;8.420;2023-05-10T11:08:18;2.80;;;1.02;;
20855;SDS011;63058;49.424;8.420;2023-05-10T11:10:51;0.60;;;0.60;;
20855;SDS011;63058;49.424;8.420;2023-05-10T11:15:54;1.90;;;0.57;;
20855;SDS011;63058;49.424;8.420;2023-05-10T11:20:58;0.80;;;0.63;;
20855;SDS011;63058;49.424;8.420;2023-05-10T11:24:12;0.93;;;0.57;;
20855;SDS011;63058;49.424;8.420;2023-05-10T11:26:21;3.40;;;0.50;;
20855;SDS011;63058;49.424;8.420;2023-05-10T11:28:51;2.25;;;0.90;;
20855;SDS011;63058;49.424;8.420;2023-05-10T11:31:20;1.17;;;0.70;;
20855;SDS011;63058;49.424;8.420;2023-05-10T11:33:47;8.77;;;0.98;;
20855;SDS011;63058;49.424;8.420;2023-05-10T11:36:15;0.52;;;0.52;;
20855;SDS011;63058;49.424;8.420;2023-05-10T11:38:46;1.08;;;0.60;;
20855;SDS011;63058;49.424;8.420;2023-05-10T11:41:13;0.77;;;0.40;;
20855;SDS011;63058;49.424;8.420;2023-05-10T11:43:39;1.70;;;0.70;;
20855;SDS011;63058;49.424;8.420;2023-05-10T11:46:06;0.90;;;0.73;;
20855;SDS011;63058;49.424;8.420;2023-05-10T11:48:38;0.63;;;0.43;;
20855;SDS011;63058;49.424;8.420;2023-05-10T11:51:04;0.90;;;0.60;;
20855;SDS011;63058;49.424;8.420;2023-05-10T11:53:32;0.85;;;0.60;;
20855;SDS011;63058;49.424;8.420;2023-05-10T11:56:08;2.45;;;0.70;;
20855;SDS011;63058;49.424;8.420;2023-05-10T11:58:35;1.02;;;0.50;;
20855;SDS011;63058;49.424;8.420;2023-05-10T12:01:02;0.75;;;0.55;;
20855;SDS011;63058;49.424;8.420;2023-05-10T12:03:29;1.00;;;0.50;;
20855;SDS011;63058;49.424;8.420;2023-05-10T12:05:55;1.35;;;0.80;;
20855;SDS011;63058;49.424;8.420;2023-05-10T12:08:22;2.47;;;1.17;;
20855;SDS011;63058;49.424;8.420;2023-05-10T12:10:50;1.17;;;0.77;;
20855;SDS011;63058;49.424;8.420;2023-05-10T12:13:16;1.08;;;0.57;;
20855;SDS011;63058;49.424;8.420;2023-05-10T12:15:43;1.40;;;0.70;;
20855;SDS011;63058;49.424;8.420;2023-05-10T12:18:09;1.40;;;0.70;;
20855;SDS011;63058;49.424;8.420;2023-05-10T12:20:36;2.10;;;0.82;;
20855;SDS011;63058;49.424;8.420;2023-05-10T12:23:02;2.35;;;0.75;;
20855;SDS011;63058;49.424;8.420;2023-05-10T12:25:35;2.88;;;1.10;;
20855;SDS011;63058;49.424;8.420;2023-05-10T12:28:03;1.10;;;0.60;;
20855;SDS011;63058;49.424;8.420;2023-05-10T12:30:30;1.85;;;0.82;;
20855;SDS011;63058;49.424;8.420;2023-05-10T12:33:01;4.03;;;0.88;;
20855;SDS011;63058;49.424;8.420;2023-05-10T12:35:31;4.70;;;0.73;;
20855;SDS011;63058;49.424;8.420;2023-05-10T12:37:57;2.40;;;0.77;;
20855;SDS011;63058;49.424;8.420;2023-05-10T12:40:23;4.00;;;0.50;;
20855;SDS011;63058;49.424;8.420;2023-05-10T12:42:48;2.28;;;0.80;;
20855;SDS011;63058;49.424;8.420;2023-05-10T12:45:14;1.92;;;0.90;;
20855;SDS011;63058;49.424;8.420;2023-05-10T12:47:42;0.75;;;0.68;;
20855;SDS011;63058;49.424;8.420;2023-05-10T12:50:08;1.23;;;0.63;;
20855;SDS011;63058;49.424;8.420;2023-05-10T12:52:33;2.17;;;0.70;;
20855;SDS011;63058;49.424;8.420;2023-05-10T12:54:59;1.40;;;0.70;;
20855;SDS011;63058;49.424;8.420;2023-05-10T12:57:26;1.95;;;0.70;;
20855;SDS011;63058;49.424;8.420;2023-05-10T12:59:52;1.90;;;1.00;;
20855;SDS011;63058;49.424;8.420;2023-05-10T13:02:18;2.08;;;0.70;;
20855;SDS011;63058;49.424;8.420;2023-05-10T13:04:45;1.23;;;0.68;;
20855;SDS011;63058;49.424;8.420;2023-05-10T13:07:11;1.88;;;0.60;;
20855;SDS011;63058;49.424;8.420;2023-05-10T13:09:37;0.93;;;0.50;;
20855;SDS011;63058;49.424;8.420;2023-05-10T13:12:03;2.03;;;0.55;;
20855;SDS011;63058;49.424;8.420;2023-05-10T13:14:29;1.65;;;0.50;;
20855;SDS011;63058;49.424;8.420;2023-05-10T13:16:55;1.90;;;0.50;;
20855;SDS011;63058;49.424;8.420;2023-05-10T13:19:20;1.20;;;0.50;;
20855;SDS011;63058;49.424;8.420;2023-05-10T13:21:46;2.50;;;0.55;;
20855;SDS011;63058;49.424;8.420;2023-05-10T13:24:12;1.75;;;0.40;;
20855;SDS011;63058;49.424;8.420;2023-05-10T13:26:39;0.82;;;0.50;;
20855;SDS011;63058;49.424;8.420;2023-05-10T13:29:05;3.60;;;0.52;;
20855;SDS011;63058;49.424;8.420;2023-05-10T13:31:31;1.17;;;0.50;;
20855;SDS011;63058;49.424;8.420;2023-05-10T13:33:58;0.60;;;0.40;;
20855;SDS011;63058;49.424;8.420;2023-05-10T13:36:24;6.25;;;0.60;;
20855;SDS011;63058;49.424;8.420;2023-05-10T13:38:50;0.98;;;0.40;;
20855;SDS011;63058;49.424;8.420;2023-05-10T13:41:15;1.25;;;0.60;;
20855;SDS011;63058;49.424;8.420;2023-05-10T13:43:41;1.42;;;0.57;;
20855;SDS011;63058;49.424;8.420;2023-05-10T13:46:07;1.05;;;0.30;;
20855;SDS011;63058;49.424;8.420;2023-05-10T13:48:32;0.90;;;0.40;;
20855;SDS011;63058;49.424;8.420;2023-05-10T13:50:58;0.43;;;0.32;;
20855;SDS011;63058;49.424;8.420;2023-05-10T13:53:23;1.90;;;0.47;;
20855;SDS011;63058;49.424;8.420;2023-05-10T13:55:49;0.88;;;0.40;;
20855;SDS011;63058;49.424;8.420;2023-05-10T13:58:15;1.17;;;0.40;;
20855;SDS011;63058;49.424;8.420;2023-05-10T14:00:40;1.10;;;0.60;;
20855;SDS011;63058;49.424;8.420;2023-05-10T14:03:06;3.85;;;0.50;;
20855;SDS011;63058;49.424;8.420;2023-05-10T14:05:34;0.85;;;0.30;;
20855;SDS011;63058;49.424;8.420;2023-05-10T14:07:59;0.90;;;0.57;;
20855;SDS011;63058;49.424;8.420;2023-05-10T14:10:25;2.17;;;0.50;;
20855;SDS011;63058;49.424;8.420;2023-05-10T14:12:50;4.22;;;0.80;;
20855;SDS011;63058;49.424;8.420;2023-05-10T14:15:16;5.88;;;0.40;;
20855;SDS011;63058;49.424;8.420;2023-05-10T14:17:42;2.17;;;0.40;;
20855;SDS011;63058;49.424;8.420;2023-05-10T14:20:08;0.63;;;0.40;;
20855;SDS011;63058;49.424;8.420;2023-05-10T14:22:34;1.05;;;0.30;;
20855;SDS011;63058;49.424;8.420;2023-05-10T14:25:00;0.73;;;0.40;;
20855;SDS011;63058;49.424;8.420;2023-05-10T14:27:26;1.58;;;0.38;;
20855;SDS011;63058;49.424;8.420;2023-05-10T14:29:51;2.08;;;0.52;;
20855;SDS011;63058;49.424;8.420;2023-05-10T14:32:18;0.98;;;0.43;;
20855;SDS011;63058;49.424;8.420;2023-05-10T14:34:43;2.15;;;0.38;;
20855;SDS011;63058;49.424;8.420;2023-05-10T14:37:10;0.28;;;0.20;;
20855;SDS011;63058;49.424;8.420;2023-05-10T14:39:36;1.20;;;0.40;;
20855;SDS011;63058;49.424;8.420;2023-05-10T14:42:02;1.30;;;0.40;;
20855;SDS011;63058;49.424;8.420;2023-05-10T14:44:28;1.25;;;0.30;;
20855;SDS011;63058;49.424;8.420;2023-05-10T14:46:54;0.35;;;0.30;;
20855;SDS011;63058;49.424;8.420;2023-05-10T14:49:20;0.38;;;0.35;;
20855;SDS011;63058;49.424;8.420;2023-05-10T14:51:48;0.22;;;0.22;;
20855;SDS011;63058;49.424;8.420;2023-05-10T14:54:14;0.38;;;0.22;;
20855;SDS011;63058;49.424;8.420;2023-05-10T14:56:40;0.60;;;0.30;;
20855;SDS011;63058;49.424;8.420;2023-05-10T14:59:06;0.32;;;0.20;;
20855;SDS011;63058;49.424;8.420;2023-05-10T15:01:32;0.32;;;0.30;;
20855;SDS011;63058;49.424;8.420;2023-05-10T15:04:00;0.57;;;0.30;;
20855;SDS011;63058;49.424;8.420;2023-05-10T15:06:32;0.50;;;0.30;;
20855;SDS011;63058;49.424;8.420;2023-05-10T15:08:59;2.17;;;0.47;;
20855;SDS011;63058;49.424;8.420;2023-05-10T15:11:25;0.85;;;0.40;;
20855;SDS011;63058;49.424;8.420;2023-05-10T15:13:51;1.08;;;0.30;;
20855;SDS011;63058;49.424;8.420;2023-05-10T15:16:17;1.10;;;0.30;;
20855;SDS011;63058;49.424;8.420;2023-05-10T15:18:43;1.13;;;0.30;;
20855;SDS011;63058;49.424;8.420;2023-05-10T15:21:08;0.43;;;0.32;;
20855;SDS011;63058;49.424;8.420;2023-05-10T15:23:34;0.40;;;0.20;;
20855;SDS011;63058;49.424;8.420;2023-05-10T15:26:00;1.25;;;0.28;;
20855;SDS011;63058;49.424;8.420;2023-05-10T15:28:27;0.55;;;0.30;;
20855;SDS011;63058;49.424;8.420;2023-05-10T15:30:52;0.70;;;0.30;;
20855;SDS011;63058;49.424;8.420;2023-05-10T15:33:18;0.73;;;0.32;;
20855;SDS011;63058;49.424;8.420;2023-05-10T15:35:44;6.43;;;0.30;;
20855;SDS011;63058;49.424;8.420;2023-05-10T15:38:09;0.55;;;0.30;;
20855;SDS011;63058;49.424;8.420;2023-05-10T15:40:35;0.73;;;0.43;;
20855;SDS011;63058;49.424;8.420;2023-05-10T15:43:01;1.45;;;0.38;;
20855;SDS011;63058;49.424;8.420;2023-05-10T15:45:26;0.63;;;0.30;;
20855;SDS011;63058;49.424;8.420;2023-05-10T15:47:52;1.85;;;0.40;;
20855;SDS011;63058;49.424;8.420;2023-05-10T15:50:18;0.50;;;0.30;;
20855;SDS011;63058;49.424;8.420;2023-05-10T15:52:43;0.75;;;0.40;;
20855;SDS011;63058;49.424;8.420;2023-05-10T15:55:09;0.20;;;0.20;;
20855;SDS011;63058;49.424;8.420;2023-05-10T15:57:40;1.52;;;0.40;;
20855;SDS011;63058;49.424;8.420;2023-05-10T16:00:08;1.50;;;0.40;;
20855;SDS011;63058;49.424;8.420;2023-05-10T16:02:34;0.75;;;0.32;;
20855;SDS011;63058;49.424;8.420;2023-05-10T16:05:00;0.73;;;0.30;;
20855;SDS011;63058;49.424;8.420;2023-05-10T16:07:26;1.30;;;0.90;;
20855;SDS011;63058;49.424;8.420;2023-05-10T16:09:51;1.08;;;0.60;;
20855;SDS011;63058;49.424;8.420;2023-05-10T16:12:17;0.93;;;0.60;;
20855;SDS011;63058;49.424;8.420;2023-05-10T16:14:43;0.68;;;0.40;;
20855;SDS011;63058;49.424;8.420;2023-05-10T16:17:10;2.25;;;0.40;;
20855;SDS011;63058;49.424;8.420;2023-05-10T16:19:36;0.60;;;0.38;;
20855;SDS011;63058;49.424;8.420;2023-05-10T16:22:02;1.50;;;0.30;;
20855;SDS011;63058;49.424;8.420;2023-05-10T16:24:27;0.77;;;0.30;;
20855;SDS011;63058;49.424;8.420;2023-05-10T16:26:54;1.67;;;0.50;;
20855;SDS011;63058;49.424;8.420;2023-05-10T16:29:20;0.20;;;0.20;;
20855;SDS011;63058;49.424;8.420;2023-05-10T16:31:45;1.17;;;0.32;;
20855;SDS011;63058;49.424;8.420;2023-05-10T16:34:11;0.60;;;0.40;;
20855;SDS011;63058;49.424;8.420;2023-05-10T16:36:36;0.98;;;0.30;;
20855;SDS011;63058;49.424;8.420;2023-05-10T16:39:02;0.75;;;0.30;;
20855;SDS011;63058;49.424;8.420;2023-05-10T16:41:31;4.55;;;0.90;;
20855;SDS011;63058;49.424;8.420;2023-05-10T16:43:57;1.00;;;0.28;;
20855;SDS011;63058;49.424;8.420;2023-05-10T16:46:22;4.45;;;0.40;;
20855;SDS011;63058;49.424;8.420;2023-05-10T16:48:48;0.30;;;0.30;;
20855;SDS011;63058;49.424;8.420;2023-05-10T16:51:14;0.40;;;0.30;;
20855;SDS011;63058;49.424;8.420;2023-05-10T16:53:39;0.25;;;0.25;;
20855;SDS011;63058;49.424;8.420;2023-05-10T16:56:05;0.30;;;0.30;;
20855;SDS011;63058;49.424;8.420;2023-05-10T16:58:31;0.22;;;0.22;;
20855;SDS011;63058;49.424;8.420;2023-05-10T17:00:58;0.90;;;0.20;;
20855;SDS011;63058;49.424;8.420;2023-05-10T17:03:24;0.20;;;0.20;;
20855;SDS011;63058;49.424;8.420;2023-05-10T17:05:49;0.22;;;0.20;;
20855;SDS011;63058;49.424;8.420;2023-05-10T17:08:15;0.52;;;0.22;;
20855;SDS011;63058;49.424;8.420;2023-05-10T17:10:41;0.60;;;0.30;;
20855;SDS011;63058;49.424;8.420;2023-05-10T17:13:07;1.48;;;0.40;;
20855;SDS011;63058;49.424;8.420;2023-05-10T17:15:34;2.13;;;0.30;;
20855;SDS011;63058;49.424;8.420;2023-05-10T17:18:01;0.52;;;0.30;;
20855;SDS011;63058;49.424;8.420;2023-05-10T17:20:27;0.38;;;0.30;;
20855;SDS011;63058;49.424;8.420;2023-05-10T17:22:53;1.38;;;0.38;;
20855;SDS011;63058;49.424;8.420;2023-05-10T17:25:18;1.50;;;0.30;;
20855;SDS011;63058;49.424;8.420;2023-05-10T17:27:44;0.30;;;0.20;;
20855;SDS011;63058;49.424;8.420;2023-05-10T17:30:10;0.35;;;0.35;;
20855;SDS011;63058;49.424;8.420;2023-05-10T17:32:36;0.80;;;0.30;;
20855;SDS011;63058;49.424;8.420;2023-05-10T17:35:02;0.30;;;0.30;;
20855;SDS011;63058;49.424;8.420;2023-05-10T17:37:29;0.30;;;0.30;;
20855;SDS011;63058;49.424;8.420;2023-05-10T17:39:57;0.30;;;0.30;;
20855;SDS011;63058;49.424;8.420;2023-05-10T17:42:23;2.45;;;0.43;;
20855;SDS011;63058;49.424;8.420;2023-05-10T17:44:49;0.50;;;0.40;;
20855;SDS011;63058;49.424;8.420;2023-05-10T17:47:15;0.40;;;0.30;;
20855;SDS011;63058;49.424;8.420;2023-05-10T17:49:42;1.30;;;0.30;;
20855;SDS011;63058;49.424;8.420;2023-05-10T17:52:07;0.82;;;0.32;;
20855;SDS011;63058;49.424;8.420;2023-05-10T17:54:33;0.85;;;0.40;;
20855;SDS011;63058;49.424;8.420;2023-05-10T17:56:59;0.65;;;0.45;;
20855;SDS011;63058;49.424;8.420;2023-05-10T17:59:25;0.52;;;0.30;;
20855;SDS011;63058;49.424;8.420;2023-05-10T18:01:51;0.95;;;0.40;;
20855;SDS011;63058;49.424;8.420;2023-05-10T18:04:17;0.20;;;0.20;;
20855;SDS011;63058;49.424;8.420;2023-05-10T18:06:42;9.52;;;0.50;;
20855;SDS011;63058;49.424;8.420;2023-05-10T18:09:08;0.30;;;0.30;;
20855;SDS011;63058;49.424;8.420;2023-05-10T18:11:34;0.68;;;0.30;;
20855;SDS011;63058;49.424;8.420;2023-05-10T18:14:00;0.32;;;0.30;;
20855;SDS011;63058;49.424;8.420;2023-05-10T18:16:26;0.57;;;0.30;;
20855;SDS011;63058;49.424;8.420;2023-05-10T18:18:52;2.92;;;0.40;;
20855;SDS011;63058;49.424;8.420;2023-05-10T18:21:17;2.20;;;0.45;;
20855;SDS011;63058;49.424;8.420;2023-05-10T18:23:43;0.20;;;0.20;;
20855;SDS011;63058;49.424;8.420;2023-05-10T18:26:08;1.50;;;0.40;;
20855;SDS011;63058;49.424;8.420;2023-05-10T18:28:35;0.30;;;0.30;;
20855;SDS011;63058;49.424;8.420;2023-05-10T18:31:00;0.30;;;0.30;;
20855;SDS011;63058;49.424;8.420;2023-05-10T18:35:55;0.63;;;0.30;;
20855;SDS011;63058;49.424;8.420;2023-05-10T18:38:21;1.77;;;0.40;;
20855;SDS011;63058;49.424;8.420;2023-05-10T18:40:47;0.98;;;0.40;;
20855;SDS011;63058;49.424;8.420;2023-05-10T18:43:12;3.00;;;0.85;;
20855;SDS011;63058;49.424;8.420;2023-05-10T18:45:38;1.52;;;0.45;;
20855;SDS011;63058;49.424;8.420;2023-05-10T18:48:04;0.60;;;0.20;;
20855;SDS011;63058;49.424;8.420;2023-05-10T18:50:30;0.98;;;0.30;;
20855;SDS011;63058;49.424;8.420;2023-05-10T18:52:56;0.73;;;0.30;;
20855;SDS011;63058;49.424;8.420;2023-05-10T18:55:23;0.52;;;0.30;;
20855;SDS011;63058;49.424;8.420;2023-05-10T18:57:49;0.70;;;0.40;;
20855;SDS011;63058;49.424;8.420;2023-05-10T19:00:15;0.25;;;0.20;;
20855;SDS011;63058;49.424;8.420;2023-05-10T19:02:43;2.42;;;0.30;;
20855;SDS011;63058;49.424;8.420;2023-05-10T19:05:09;0.47;;;0.30;;
20855;SDS011;63058;49.424;8.420;2023-05-10T19:07:34;0.85;;;0.40;;
20855;SDS011;63058;49.424;8.420;2023-05-10T19:10:00;0.30;;;0.30;;
20855;SDS011;63058;49.424;8.420;2023-05-10T19:12:26;0.28;;;0.28;;
20855;SDS011;63058;49.424;8.420;2023-05-10T19:14:52;3.33;;;0.30;;
20855;SDS011;63058;49.424;8.420;2023-05-10T19:17:20;0.75;;;0.30;;
20855;SDS011;63058;49.424;8.420;2023-05-10T19:19:45;0.30;;;0.30;;
20855;SDS011;63058;49.424;8.420;2023-05-10T19:22:11;0.20;;;0.20;;
20855;SDS011;63058;49.424;8.420;2023-05-10T19:24:37;0.30;;;0.30;;
20855;SDS011;63058;49.424;8.420;2023-05-10T19:27:02;0.28;;;0.28;;
20855;SDS011;63058;49.424;8.420;2023-05-10T19:29:28;0.47;;;0.30;;
20855;SDS011;63058;49.424;8.420;2023-05-10T19:31:53;2.10;;;0.30;;
20855;SDS011;63058;49.424;8.420;2023-05-10T19:34:19;0.65;;;0.30;;
20855;SDS011;63058;49.424;8.420;2023-05-10T19:36:45;0.95;;;0.40;;
20855;SDS011;63058;49.424;8.420;2023-05-10T19:39:11;0.55;;;0.40;;
20855;SDS011;63058;49.424;8.420;2023-05-10T19:41:37;1.70;;;0.40;;
20855;SDS011;63058;49.424;8.420;2023-05-10T19:44:02;0.70;;;0.40;;
20855;SDS011;63058;49.424;8.420;2023-05-10T19:46:28;0.40;;;0.30;;
20855;SDS011;63058;49.424;8.420;2023-05-10T19:48:55;0.30;;;0.30;;
20855;SDS011;63058;49.424;8.420;2023-05-10T19:51:21;0.40;;;0.40;;
20855;SDS011;63058;49.424;8.420;2023-05-10T19:53:47;0.60;;;0.45;;
20855;SDS011;63058;49.424;8.420;2023-05-10T19:56:12;1.30;;;0.30;;
20855;SDS011;63058;49.424;8.420;2023-05-10T19:58:38;0.30;;;0.30;;
20855;SDS011;63058;49.424;8.420;2023-05-10T20:01:04;0.30;;;0.30;;
20855;SDS011;63058;49.424;8.420;2023-05-10T20:03:31;0.68;;;0.38;;
20855;SDS011;63058;49.424;8.420;2023-05-10T20:05:58;0.90;;;0.40;;
20855;SDS011;63058;49.424;8.420;2023-05-10T20:08:24;0.65;;;0.32;;
20855;SDS011;63058;49.424;8.420;2023-05-10T20:10:50;0.95;;;0.60;;
20855;SDS011;63058;49.424;8.420;2023-05-10T20:13:15;0.93;;;0.40;;
20855;SDS011;63058;49.424;8.420;2023-05-10T20:15:41;1.90;;;0.40;;
20855;SDS011;63058;49.424;8.420;2023-05-10T20:18:07;1.98;;;0.40;;
20855;SDS011;63058;49.424;8.420;2023-05-10T20:20:33;0.40;;;0.30;;
20855;SDS011;63058;49.424;8.420;2023-05-10T20:22:58;0.22;;;0.22;;
20855;SDS011;63058;49.424;8.420;2023-05-10T20:25:24;1.27;;;0.30;;
20855;SDS011;63058;49.424;8.420;2023-05-10T20:27:50;0.35;;;0.30;;
20855;SDS011;63058;49.424;8.420;2023-05-10T20:30:15;0.40;;;0.40;;
20855;SDS011;63058;49.424;8.420;2023-05-10T20:32:44;0.43;;;0.35;;
20855;SDS011;63058;49.424;8.420;2023-05-10T20:35:10;0.47;;;0.30;;
20855;SDS011;63058;49.424;8.420;2023-05-10T20:37:37;0.60;;;0.47;;
20855;SDS011;63058;49.424;8.420;2023-05-10T20:40:03;0.30;;;0.30;;
20855;SDS011;63058;49.424;8.420;2023-05-10T20:42:29;0.50;;;0.50;;
20855;SDS011;63058;49.424;8.420;2023-05-10T20:44:55;0.40;;;0.30;;
20855;SDS011;63058;49.424;8.420;2023-05-10T20:47:21;0.20;;;0.20;;
20855;SDS011;63058;49.424;8.420;2023-05-10T20:49:47;0.57;;;0.38;;
20855;SDS011;63058;49.424;8.420;2023-05-10T20:52:13;0.45;;;0.40;;
20855;SDS011;63058;49.424;8.420;2023-05-10T20:54:39;0.45;;;0.40;;
20855;SDS011;63058;49.424;8.420;2023-05-10T20:57:05;1.95;;;0.30;;
20855;SDS011;63058;49.424;8.420;2023-05-10T20:59:30;0.52;;;0.40;;
20855;SDS011;63058;49.424;8.420;2023-05-10T21:01:56;0.32;;;0.32;;
20855;SDS011;63058;49.424;8.420;2023-05-10T21:04:22;0.70;;;0.40;;
20855;SDS011;63058;49.424;8.420;2023-05-10T21:06:49;0.52;;;0.35;;
20855;SDS011;63058;49.424;8.420;2023-05-10T21:09:15;0.40;;;0.30;;
20855;SDS011;63058;49.424;8.420;2023-05-10T21:11:41;2.28;;;0.30;;
20855;SDS011;63058;49.424;8.420;2023-05-10T21:14:07;1.95;;;0.40;;